sensor_id;sensor_type;location;lat;lon;timestamp;P1;durP1;ratioP1;P2;durP2;ratioP2
76035;SDS011;64732;56.314;44.068;2023-04-24T00:01:21;7.45;;;2.28;;
76035;SDS011;64732;56.314;44.068;2023-04-24T00:03:45;5.47;;;2.17;;
76035;SDS011;64732;56.314;44.068;2023-04-24T00:06:06;5.40;;;1.83;;
76035;SDS011;64732;56.314;44.068;2023-04-24T00:08:27;5.32;;;1.60;;
76035;SDS011;64732;56.314;44.068;2023-04-24T00:10:48;3.10;;;1.60;;
76035;SDS011;64732;56.314;44.068;2023-04-24T00:13:10;4.60;;;1.50;;
76035;SDS011;64732;56.314;44.068;2023-04-24T00:15:31;3.92;;;1.75;;
76035;SDS011;64732;56.314;44.068;2023-04-24T00:17:52;2.95;;;1.45;;
76035;SDS011;64732;56.314;44.068;2023-04-24T00:20:16;5.45;;;1.67;;
76035;SDS011;64732;56.314;44.068;2023-04-24T00:22:39;5.18;;;1.60;;
76035;SDS011;64732;56.314;44.068;2023-04-24T00:25:01;3.47;;;1.27;;
76035;SDS011;64732;56.314;44.068;2023-04-24T00:27:24;4.53;;;1.75;;
76035;SDS011;64732;56.314;44.068;2023-04-24T00:29:45;3.28;;;1.50;;
76035;SDS011;64732;56.314;44.068;2023-04-24T00:32:06;3.97;;;1.77;;
76035;SDS011;64732;56.314;44.068;2023-04-24T00:34:27;5.40;;;1.60;;
76035;SDS011;64732;56.314;44.068;2023-04-24T00:36:50;3.55;;;1.83;;
76035;SDS011;64732;56.314;44.068;2023-04-24T00:39:11;3.45;;;1.75;;
76035;SDS011;64732;56.314;44.068;2023-04-24T00:41:32;4.00;;;1.63;;
76035;SDS011;64732;56.314;44.068;2023-04-24T00:43:53;3.83;;;1.70;;
76035;SDS011;64732;56.314;44.068;2023-04-24T00:46:14;6.03;;;1.88;;
76035;SDS011;64732;56.314;44.068;2023-04-24T00:48:37;5.45;;;1.75;;
76035;SDS011;64732;56.314;44.068;2023-04-24T00:50:59;3.65;;;1.70;;
76035;SDS011;64732;56.314;44.068;2023-04-24T00:53:23;4.50;;;1.67;;
76035;SDS011;64732;56.314;44.068;2023-04-24T00:55:44;4.43;;;1.67;;
76035;SDS011;64732;56.314;44.068;2023-04-24T00:58:05;4.03;;;2.00;;
76035;SDS011;64732;56.314;44.068;2023-04-24T01:00:26;4.28;;;1.52;;
76035;SDS011;64732;56.314;44.068;2023-04-24T01:02:47;4.07;;;1.50;;
76035;SDS011;64732;56.314;44.068;2023-04-24T01:05:09;3.60;;;1.48;;
76035;SDS011;64732;56.314;44.068;2023-04-24T01:07:30;4.57;;;2.38;;
76035;SDS011;64732;56.314;44.068;2023-04-24T01:09:54;3.75;;;1.80;;
76035;SDS011;64732;56.314;44.068;2023-04-24T01:12:15;6.93;;;1.73;;
76035;SDS011;64732;56.314;44.068;2023-04-24T01:14:36;5.43;;;1.70;;
76035;SDS011;64732;56.314;44.068;2023-04-24T01:16:57;3.08;;;1.48;;
76035;SDS011;64732;56.314;44.068;2023-04-24T01:19:18;2.80;;;1.65;;
76035;SDS011;64732;56.314;44.068;2023-04-24T01:21:39;8.60;;;2.83;;
76035;SDS011;64732;56.314;44.068;2023-04-24T01:24:05;3.88;;;2.05;;
76035;SDS011;64732;56.314;44.068;2023-04-24T01:26:27;4.75;;;2.65;;
76035;SDS011;64732;56.314;44.068;2023-04-24T01:28:48;4.75;;;2.05;;
76035;SDS011;64732;56.314;44.068;2023-04-24T01:31:09;4.20;;;1.92;;
76035;SDS011;64732;56.314;44.068;2023-04-24T01:33:30;3.63;;;1.60;;
76035;SDS011;64732;56.314;44.068;2023-04-24T01:35:52;8.23;;;3.92;;
76035;SDS011;64732;56.314;44.068;2023-04-24T01:38:13;5.60;;;1.90;;
76035;SDS011;64732;56.314;44.068;2023-04-24T01:40:36;4.07;;;1.63;;
76035;SDS011;64732;56.314;44.068;2023-04-24T01:42:58;8.00;;;2.03;;
76035;SDS011;64732;56.314;44.068;2023-04-24T01:45:19;7.30;;;2.22;;
76035;SDS011;64732;56.314;44.068;2023-04-24T01:47:40;6.30;;;1.67;;
76035;SDS011;64732;56.314;44.068;2023-04-24T01:50:02;3.42;;;1.77;;
76035;SDS011;64732;56.314;44.068;2023-04-24T01:52:24;5.28;;;2.40;;
76035;SDS011;64732;56.314;44.068;2023-04-24T01:54:45;4.45;;;1.92;;
76035;SDS011;64732;56.314;44.068;2023-04-24T01:57:08;5.85;;;1.75;;
76035;SDS011;64732;56.314;44.068;2023-04-24T01:59:29;7.30;;;2.08;;
76035;SDS011;64732;56.314;44.068;2023-04-24T02:01:51;5.97;;;1.90;;
76035;SDS011;64732;56.314;44.068;2023-04-24T02:04:12;4.50;;;1.83;;
76035;SDS011;64732;56.314;44.068;2023-04-24T02:06:33;8.25;;;2.85;;
76035;SDS011;64732;56.314;44.068;2023-04-24T02:08:54;4.32;;;1.75;;
76035;SDS011;64732;56.314;44.068;2023-04-24T02:11:15;5.13;;;1.90;;
76035;SDS011;64732;56.314;44.068;2023-04-24T02:13:39;4.10;;;1.88;;
76035;SDS011;64732;56.314;44.068;2023-04-24T02:16:00;3.97;;;1.90;;
76035;SDS011;64732;56.314;44.068;2023-04-24T02:18:41;6.15;;;2.10;;
76035;SDS011;64732;56.314;44.068;2023-04-24T02:21:02;5.55;;;1.80;;
76035;SDS011;64732;56.314;44.068;2023-04-24T02:23:23;5.47;;;2.10;;
76035;SDS011;64732;56.314;44.068;2023-04-24T02:25:44;7.15;;;1.88;;
76035;SDS011;64732;56.314;44.068;2023-04-24T02:28:05;4.88;;;2.28;;
76035;SDS011;64732;56.314;44.068;2023-04-24T02:30:29;5.07;;;2.05;;
76035;SDS011;64732;56.314;44.068;2023-04-24T02:33:04;4.03;;;1.85;;
76035;SDS011;64732;56.314;44.068;2023-04-24T02:35:25;5.78;;;2.53;;
76035;SDS011;64732;56.314;44.068;2023-04-24T02:37:46;6.95;;;2.72;;
76035;SDS011;64732;56.314;44.068;2023-04-24T02:40:08;7.57;;;2.13;;
76035;SDS011;64732;56.314;44.068;2023-04-24T02:42:29;5.00;;;2.85;;
76035;SDS011;64732;56.314;44.068;2023-04-24T02:44:50;6.45;;;2.85;;
76035;SDS011;64732;56.314;44.068;2023-04-24T02:47:14;4.82;;;2.22;;
76035;SDS011;64732;56.314;44.068;2023-04-24T02:49:35;4.57;;;1.83;;
76035;SDS011;64732;56.314;44.068;2023-04-24T02:51:56;4.53;;;2.25;;
76035;SDS011;64732;56.314;44.068;2023-04-24T02:54:17;6.63;;;1.88;;
76035;SDS011;64732;56.314;44.068;2023-04-24T02:56:38;7.07;;;2.33;;
76035;SDS011;64732;56.314;44.068;2023-04-24T02:59:00;7.47;;;2.63;;
76035;SDS011;64732;56.314;44.068;2023-04-24T03:01:21;5.70;;;3.08;;
76035;SDS011;64732;56.314;44.068;2023-04-24T03:03:44;3.90;;;2.00;;
76035;SDS011;64732;56.314;44.068;2023-04-24T03:06:14;7.57;;;2.58;;
76035;SDS011;64732;56.314;44.068;2023-04-24T03:08:46;7.50;;;2.20;;
76035;SDS011;64732;56.314;44.068;2023-04-24T03:11:07;8.60;;;2.40;;
76035;SDS011;64732;56.314;44.068;2023-04-24T03:13:28;5.63;;;2.13;;
76035;SDS011;64732;56.314;44.068;2023-04-24T03:15:50;6.82;;;2.35;;
76035;SDS011;64732;56.314;44.068;2023-04-24T03:18:14;4.93;;;2.47;;
76035;SDS011;64732;56.314;44.068;2023-04-24T03:20:37;9.27;;;4.47;;
76035;SDS011;64732;56.314;44.068;2023-04-24T03:22:59;7.18;;;3.20;;
76035;SDS011;64732;56.314;44.068;2023-04-24T03:25:20;4.93;;;2.60;;
76035;SDS011;64732;56.314;44.068;2023-04-24T03:27:41;6.10;;;2.53;;
76035;SDS011;64732;56.314;44.068;2023-04-24T03:30:06;8.02;;;2.50;;
76035;SDS011;64732;56.314;44.068;2023-04-24T03:32:28;7.95;;;2.20;;
76035;SDS011;64732;56.314;44.068;2023-04-24T03:34:49;8.20;;;2.80;;
76035;SDS011;64732;56.314;44.068;2023-04-24T03:37:13;5.25;;;2.42;;
76035;SDS011;64732;56.314;44.068;2023-04-24T03:39:34;4.53;;;2.55;;
76035;SDS011;64732;56.314;44.068;2023-04-24T03:41:55;6.82;;;2.53;;
76035;SDS011;64732;56.314;44.068;2023-04-24T03:44:16;14.05;;;4.18;;
76035;SDS011;64732;56.314;44.068;2023-04-24T03:46:37;6.15;;;2.47;;
76035;SDS011;64732;56.314;44.068;2023-04-24T03:48:59;9.20;;;2.80;;
76035;SDS011;64732;56.314;44.068;2023-04-24T03:51:22;5.28;;;2.22;;
76035;SDS011;64732;56.314;44.068;2023-04-24T03:53:45;8.20;;;2.30;;
76035;SDS011;64732;56.314;44.068;2023-04-24T03:56:06;7.72;;;2.53;;
76035;SDS011;64732;56.314;44.068;2023-04-24T03:58:28;5.90;;;2.47;;
76035;SDS011;64732;56.314;44.068;2023-04-24T04:00:49;9.35;;;3.08;;
76035;SDS011;64732;56.314;44.068;2023-04-24T04:03:10;4.97;;;2.10;;
76035;SDS011;64732;56.314;44.068;2023-04-24T04:05:31;5.25;;;2.47;;
76035;SDS011;64732;56.314;44.068;2023-04-24T04:07:52;9.27;;;2.25;;
76035;SDS011;64732;56.314;44.068;2023-04-24T04:10:16;7.80;;;2.33;;
76035;SDS011;64732;56.314;44.068;2023-04-24T04:12:37;7.57;;;2.13;;
76035;SDS011;64732;56.314;44.068;2023-04-24T04:14:59;7.35;;;2.70;;
76035;SDS011;64732;56.314;44.068;2023-04-24T04:17:21;5.45;;;2.22;;
76035;SDS011;64732;56.314;44.068;2023-04-24T04:19:47;8.70;;;3.53;;
76035;SDS011;64732;56.314;44.068;2023-04-24T04:22:08;5.50;;;2.70;;
76035;SDS011;64732;56.314;44.068;2023-04-24T04:24:29;11.02;;;3.20;;
76035;SDS011;64732;56.314;44.068;2023-04-24T04:26:52;6.55;;;2.95;;
76035;SDS011;64732;56.314;44.068;2023-04-24T04:29:13;4.80;;;2.30;;
76035;SDS011;64732;56.314;44.068;2023-04-24T04:31:36;11.80;;;2.92;;
76035;SDS011;64732;56.314;44.068;2023-04-24T04:33:57;9.68;;;2.55;;
76035;SDS011;64732;56.314;44.068;2023-04-24T04:36:18;11.82;;;3.30;;
76035;SDS011;64732;56.314;44.068;2023-04-24T04:38:39;11.52;;;3.03;;
76035;SDS011;64732;56.314;44.068;2023-04-24T04:41:00;8.02;;;3.20;;
76035;SDS011;64732;56.314;44.068;2023-04-24T04:43:24;7.00;;;3.10;;
76035;SDS011;64732;56.314;44.068;2023-04-24T04:45:45;8.93;;;3.33;;
76035;SDS011;64732;56.314;44.068;2023-04-24T04:48:07;16.25;;;3.95;;
76035;SDS011;64732;56.314;44.068;2023-04-24T04:50:30;12.60;;;4.25;;
76035;SDS011;64732;56.314;44.068;2023-04-24T04:52:51;8.75;;;3.30;;
76035;SDS011;64732;56.314;44.068;2023-04-24T04:55:12;15.55;;;3.47;;
76035;SDS011;64732;56.314;44.068;2023-04-24T04:57:33;11.35;;;3.90;;
76035;SDS011;64732;56.314;44.068;2023-04-24T04:59:57;8.73;;;3.42;;
76035;SDS011;64732;56.314;44.068;2023-04-24T05:02:18;10.60;;;3.90;;
76035;SDS011;64732;56.314;44.068;2023-04-24T05:04:40;9.25;;;3.83;;
76035;SDS011;64732;56.314;44.068;2023-04-24T05:07:01;8.73;;;3.85;;
76035;SDS011;64732;56.314;44.068;2023-04-24T05:09:22;11.30;;;4.88;;
76035;SDS011;64732;56.314;44.068;2023-04-24T05:11:43;10.70;;;3.85;;
76035;SDS011;64732;56.314;44.068;2023-04-24T05:14:04;12.70;;;3.75;;
76035;SDS011;64732;56.314;44.068;2023-04-24T05:16:28;11.88;;;3.58;;
76035;SDS011;64732;56.314;44.068;2023-04-24T05:18:49;10.60;;;3.50;;
76035;SDS011;64732;56.314;44.068;2023-04-24T05:21:11;9.75;;;3.55;;
76035;SDS011;64732;56.314;44.068;2023-04-24T05:23:32;7.28;;;3.55;;
76035;SDS011;64732;56.314;44.068;2023-04-24T05:25:53;12.82;;;5.00;;
76035;SDS011;64732;56.314;44.068;2023-04-24T05:28:14;9.77;;;4.75;;
76035;SDS011;64732;56.314;44.068;2023-04-24T05:30:35;12.98;;;4.35;;
76035;SDS011;64732;56.314;44.068;2023-04-24T05:32:59;9.93;;;4.45;;
76035;SDS011;64732;56.314;44.068;2023-04-24T05:35:20;11.93;;;3.72;;
76035;SDS011;64732;56.314;44.068;2023-04-24T05:37:41;10.23;;;4.18;;
76035;SDS011;64732;56.314;44.068;2023-04-24T05:40:02;11.23;;;4.05;;
76035;SDS011;64732;56.314;44.068;2023-04-24T05:42:24;10.15;;;4.18;;
76035;SDS011;64732;56.314;44.068;2023-04-24T05:44:46;12.55;;;4.80;;
76035;SDS011;64732;56.314;44.068;2023-04-24T05:47:07;10.57;;;3.17;;
76035;SDS011;64732;56.314;44.068;2023-04-24T05:49:31;10.93;;;4.07;;
76035;SDS011;64732;56.314;44.068;2023-04-24T05:51:52;9.13;;;3.70;;
76035;SDS011;64732;56.314;44.068;2023-04-24T05:54:13;8.48;;;3.70;;
76035;SDS011;64732;56.314;44.068;2023-04-24T05:56:35;11.48;;;3.58;;
76035;SDS011;64732;56.314;44.068;2023-04-24T05:58:56;9.10;;;3.08;;
76035;SDS011;64732;56.314;44.068;2023-04-24T06:01:17;7.32;;;3.28;;
76035;SDS011;64732;56.314;44.068;2023-04-24T06:03:38;7.35;;;3.30;;
76035;SDS011;64732;56.314;44.068;2023-04-24T06:06:02;11.93;;;3.20;;
76035;SDS011;64732;56.314;44.068;2023-04-24T06:08:23;9.52;;;3.20;;
76035;SDS011;64732;56.314;44.068;2023-04-24T06:10:45;6.82;;;2.53;;
76035;SDS011;64732;56.314;44.068;2023-04-24T06:13:20;9.98;;;3.40;;
76035;SDS011;64732;56.314;44.068;2023-04-24T06:15:42;7.38;;;3.40;;
76035;SDS011;64732;56.314;44.068;2023-04-24T06:18:03;9.18;;;4.32;;
76035;SDS011;64732;56.314;44.068;2023-04-24T06:20:24;14.13;;;4.18;;
76035;SDS011;64732;56.314;44.068;2023-04-24T06:22:48;11.93;;;4.60;;
76035;SDS011;64732;56.314;44.068;2023-04-24T06:25:09;11.00;;;4.03;;
76035;SDS011;64732;56.314;44.068;2023-04-24T06:27:31;10.32;;;4.68;;
76035;SDS011;64732;56.314;44.068;2023-04-24T06:29:52;11.35;;;4.63;;
76035;SDS011;64732;56.314;44.068;2023-04-24T06:32:13;12.52;;;4.43;;
76035;SDS011;64732;56.314;44.068;2023-04-24T06:34:35;14.05;;;4.50;;
76035;SDS011;64732;56.314;44.068;2023-04-24T06:36:56;11.80;;;4.95;;
76035;SDS011;64732;56.314;44.068;2023-04-24T06:39:20;14.18;;;5.75;;
76035;SDS011;64732;56.314;44.068;2023-04-24T06:41:41;11.50;;;4.15;;
76035;SDS011;64732;56.314;44.068;2023-04-24T06:44:02;8.95;;;4.80;;
76035;SDS011;64732;56.314;44.068;2023-04-24T06:46:23;11.48;;;4.15;;
76035;SDS011;64732;56.314;44.068;2023-04-24T06:48:44;11.10;;;3.90;;
76035;SDS011;64732;56.314;44.068;2023-04-24T06:51:05;10.57;;;4.05;;
76035;SDS011;64732;56.314;44.068;2023-04-24T06:53:26;8.98;;;3.00;;
76035;SDS011;64732;56.314;44.068;2023-04-24T06:55:50;9.80;;;3.60;;
76035;SDS011;64732;56.314;44.068;2023-04-24T06:58:11;9.75;;;3.42;;
76035;SDS011;64732;56.314;44.068;2023-04-24T07:00:34;8.85;;;3.55;;
76035;SDS011;64732;56.314;44.068;2023-04-24T07:02:56;12.32;;;4.30;;
76035;SDS011;64732;56.314;44.068;2023-04-24T07:05:17;11.13;;;3.90;;
76035;SDS011;64732;56.314;44.068;2023-04-24T07:07:38;9.18;;;3.47;;
76035;SDS011;64732;56.314;44.068;2023-04-24T07:09:59;9.48;;;3.20;;
76035;SDS011;64732;56.314;44.068;2023-04-24T07:12:23;13.05;;;3.50;;
76035;SDS011;64732;56.314;44.068;2023-04-24T07:14:44;10.43;;;2.70;;
76035;SDS011;64732;56.314;44.068;2023-04-24T07:17:05;4.80;;;2.38;;
76035;SDS011;64732;56.314;44.068;2023-04-24T07:19:26;7.80;;;3.08;;
76035;SDS011;64732;56.314;44.068;2023-04-24T07:21:47;7.43;;;4.13;;
76035;SDS011;64732;56.314;44.068;2023-04-24T07:24:08;9.43;;;3.78;;
76035;SDS011;64732;56.314;44.068;2023-04-24T07:26:30;6.07;;;2.08;;
76035;SDS011;64732;56.314;44.068;2023-04-24T07:28:54;5.18;;;1.80;;
76035;SDS011;64732;56.314;44.068;2023-04-24T07:31:15;8.93;;;2.50;;
76035;SDS011;64732;56.314;44.068;2023-04-24T07:33:36;5.97;;;1.92;;
76035;SDS011;64732;56.314;44.068;2023-04-24T07:35:58;4.55;;;1.50;;
76035;SDS011;64732;56.314;44.068;2023-04-24T07:38:19;4.75;;;1.60;;
76035;SDS011;64732;56.314;44.068;2023-04-24T07:40:40;4.55;;;2.22;;
76035;SDS011;64732;56.314;44.068;2023-04-24T07:43:01;6.10;;;2.03;;
76035;SDS011;64732;56.314;44.068;2023-04-24T07:45:25;6.68;;;2.63;;
76035;SDS011;64732;56.314;44.068;2023-04-24T07:47:46;5.47;;;2.72;;
76035;SDS011;64732;56.314;44.068;2023-04-24T07:50:08;5.10;;;2.40;;
76035;SDS011;64732;56.314;44.068;2023-04-24T07:52:29;8.25;;;2.80;;
76035;SDS011;64732;56.314;44.068;2023-04-24T07:54:50;9.98;;;3.35;;
76035;SDS011;64732;56.314;44.068;2023-04-24T07:57:12;13.20;;;3.75;;
76035;SDS011;64732;56.314;44.068;2023-04-24T07:59:33;9.55;;;3.58;;
76035;SDS011;64732;56.314;44.068;2023-04-24T08:01:56;8.10;;;3.08;;
76035;SDS011;64732;56.314;44.068;2023-04-24T08:04:17;10.60;;;3.33;;
76035;SDS011;64732;56.314;44.068;2023-04-24T08:06:38;8.38;;;3.55;;
76035;SDS011;64732;56.314;44.068;2023-04-24T08:09:00;8.85;;;2.90;;
76035;SDS011;64732;56.314;44.068;2023-04-24T08:11:23;8.55;;;3.28;;
76035;SDS011;64732;56.314;44.068;2023-04-24T08:13:45;5.88;;;2.97;;
76035;SDS011;64732;56.314;44.068;2023-04-24T08:16:06;8.82;;;3.42;;
76035;SDS011;64732;56.314;44.068;2023-04-24T08:18:29;9.32;;;4.10;;
76035;SDS011;64732;56.314;44.068;2023-04-24T08:20:51;7.95;;;3.28;;
76035;SDS011;64732;56.314;44.068;2023-04-24T08:23:12;6.97;;;3.72;;
76035;SDS011;64732;56.314;44.068;2023-04-24T08:25:33;9.95;;;3.90;;
76035;SDS011;64732;56.314;44.068;2023-04-24T08:27:54;6.88;;;4.15;;
76035;SDS011;64732;56.314;44.068;2023-04-24T08:30:15;11.05;;;3.40;;
76035;SDS011;64732;56.314;44.068;2023-04-24T08:32:36;9.77;;;3.75;;
76035;SDS011;64732;56.314;44.068;2023-04-24T08:35:00;11.00;;;4.18;;
76035;SDS011;64732;56.314;44.068;2023-04-24T08:37:21;8.88;;;3.20;;
76035;SDS011;64732;56.314;44.068;2023-04-24T08:39:42;11.23;;;3.42;;
76035;SDS011;64732;56.314;44.068;2023-04-24T08:42:03;7.63;;;3.10;;
76035;SDS011;64732;56.314;44.068;2023-04-24T08:44:25;8.43;;;3.17;;
76035;SDS011;64732;56.314;44.068;2023-04-24T08:46:46;10.25;;;4.00;;
76035;SDS011;64732;56.314;44.068;2023-04-24T08:49:08;7.75;;;3.05;;
76035;SDS011;64732;56.314;44.068;2023-04-24T08:51:32;6.95;;;3.25;;
76035;SDS011;64732;56.314;44.068;2023-04-24T08:53:54;8.20;;;3.08;;
76035;SDS011;64732;56.314;44.068;2023-04-24T08:56:15;8.95;;;2.95;;
76035;SDS011;64732;56.314;44.068;2023-04-24T08:58:36;4.90;;;2.47;;
76035;SDS011;64732;56.314;44.068;2023-04-24T09:00:58;7.40;;;2.45;;
76035;SDS011;64732;56.314;44.068;2023-04-24T09:03:19;6.75;;;2.50;;
76035;SDS011;64732;56.314;44.068;2023-04-24T09:05:42;5.82;;;2.53;;
76035;SDS011;64732;56.314;44.068;2023-04-24T09:08:07;5.93;;;2.45;;
76035;SDS011;64732;56.314;44.068;2023-04-24T09:10:28;4.85;;;2.55;;
76035;SDS011;64732;56.314;44.068;2023-04-24T09:12:50;5.15;;;1.63;;
76035;SDS011;64732;56.314;44.068;2023-04-24T09:15:11;5.55;;;2.60;;
76035;SDS011;64732;56.314;44.068;2023-04-24T09:17:32;5.97;;;2.00;;
76035;SDS011;64732;56.314;44.068;2023-04-24T09:19:54;7.90;;;2.15;;
76035;SDS011;64732;56.314;44.068;2023-04-24T09:22:15;7.53;;;2.80;;
76035;SDS011;64732;56.314;44.068;2023-04-24T09:24:39;8.88;;;2.83;;
76035;SDS011;64732;56.314;44.068;2023-04-24T09:27:00;8.23;;;3.25;;
76035;SDS011;64732;56.314;44.068;2023-04-24T09:29:21;6.13;;;2.90;;
76035;SDS011;64732;56.314;44.068;2023-04-24T09:31:42;7.15;;;2.67;;
76035;SDS011;64732;56.314;44.068;2023-04-24T09:34:04;3.97;;;2.20;;
76035;SDS011;64732;56.314;44.068;2023-04-24T09:41:46;7.93;;;2.25;;
76035;SDS011;64732;56.314;44.068;2023-04-24T09:44:10;13.97;;;2.87;;
76035;SDS011;64732;56.314;44.068;2023-04-24T09:46:33;4.45;;;2.38;;
76035;SDS011;64732;56.314;44.068;2023-04-24T09:48:55;9.55;;;2.30;;
76035;SDS011;64732;56.314;44.068;2023-04-24T09:51:16;8.05;;;1.83;;
76035;SDS011;64732;56.314;44.068;2023-04-24T09:53:37;9.45;;;3.40;;
76035;SDS011;64732;56.314;44.068;2023-04-24T09:56:02;5.93;;;1.77;;
76035;SDS011;64732;56.314;44.068;2023-04-24T09:58:29;4.97;;;2.33;;
76035;SDS011;64732;56.314;44.068;2023-04-24T10:00:50;4.18;;;1.40;;
76035;SDS011;64732;56.314;44.068;2023-04-24T10:03:14;3.83;;;1.50;;
76035;SDS011;64732;56.314;44.068;2023-04-24T10:05:35;5.07;;;2.03;;
76035;SDS011;64732;56.314;44.068;2023-04-24T10:07:57;6.13;;;2.13;;
76035;SDS011;64732;56.314;44.068;2023-04-24T10:10:20;11.10;;;2.28;;
76035;SDS011;64732;56.314;44.068;2023-04-24T10:12:41;4.82;;;1.83;;
76035;SDS011;64732;56.314;44.068;2023-04-24T10:15:06;5.00;;;1.80;;
76035;SDS011;64732;56.314;44.068;2023-04-24T10:17:28;5.63;;;1.55;;
76035;SDS011;64732;56.314;44.068;2023-04-24T10:19:50;4.47;;;1.83;;
76035;SDS011;64732;56.314;44.068;2023-04-24T10:22:17;5.18;;;1.35;;
76035;SDS011;64732;56.314;44.068;2023-04-24T10:24:38;4.68;;;1.70;;
76035;SDS011;64732;56.314;44.068;2023-04-24T10:26:59;3.13;;;1.60;;
76035;SDS011;64732;56.314;44.068;2023-04-24T10:29:21;6.75;;;1.80;;
76035;SDS011;64732;56.314;44.068;2023-04-24T10:31:47;14.30;;;1.80;;
76035;SDS011;64732;56.314;44.068;2023-04-24T10:34:09;3.67;;;1.38;;
76035;SDS011;64732;56.314;44.068;2023-04-24T10:36:30;4.00;;;1.50;;
76035;SDS011;64732;56.314;44.068;2023-04-24T10:38:52;5.28;;;1.77;;
76035;SDS011;64732;56.314;44.068;2023-04-24T10:41:14;2.60;;;1.20;;
76035;SDS011;64732;56.314;44.068;2023-04-24T10:43:35;4.35;;;1.45;;
76035;SDS011;64732;56.314;44.068;2023-04-24T10:46:00;5.93;;;1.60;;
76035;SDS011;64732;56.314;44.068;2023-04-24T10:48:25;8.38;;;1.88;;
76035;SDS011;64732;56.314;44.068;2023-04-24T10:50:47;5.75;;;1.42;;
76035;SDS011;64732;56.314;44.068;2023-04-24T10:53:12;6.33;;;2.20;;
76035;SDS011;64732;56.314;44.068;2023-04-24T10:55:41;8.18;;;1.88;;
76035;SDS011;64732;56.314;44.068;2023-04-24T10:58:04;4.53;;;2.08;;
76035;SDS011;64732;56.314;44.068;2023-04-24T11:00:25;3.38;;;1.50;;
76035;SDS011;64732;56.314;44.068;2023-04-24T11:02:47;5.65;;;1.45;;
76035;SDS011;64732;56.314;44.068;2023-04-24T11:05:11;3.78;;;1.20;;
76035;SDS011;64732;56.314;44.068;2023-04-24T11:12:46;7.28;;;1.80;;
76035;SDS011;64732;56.314;44.068;2023-04-24T11:15:09;4.60;;;1.40;;
76035;SDS011;64732;56.314;44.068;2023-04-24T11:17:32;3.30;;;1.27;;
76035;SDS011;64732;56.314;44.068;2023-04-24T11:19:53;6.47;;;1.48;;
76035;SDS011;64732;56.314;44.068;2023-04-24T11:22:24;6.50;;;1.77;;
76035;SDS011;64732;56.314;44.068;2023-04-24T11:24:49;4.47;;;1.58;;
76035;SDS011;64732;56.314;44.068;2023-04-24T11:27:12;6.70;;;1.83;;
76035;SDS011;64732;56.314;44.068;2023-04-24T11:29:40;5.65;;;1.90;;
76035;SDS011;64732;56.314;44.068;2023-04-24T11:32:13;4.55;;;1.65;;
76035;SDS011;64732;56.314;44.068;2023-04-24T11:34:45;4.82;;;1.88;;
76035;SDS011;64732;56.314;44.068;2023-04-24T11:37:06;3.55;;;1.40;;
76035;SDS011;64732;56.314;44.068;2023-04-24T11:39:30;5.03;;;1.85;;
76035;SDS011;64732;56.314;44.068;2023-04-24T11:42:01;5.32;;;1.95;;
76035;SDS011;64732;56.314;44.068;2023-04-24T11:44:23;6.30;;;1.50;;
76035;SDS011;64732;56.314;44.068;2023-04-24T11:46:46;2.47;;;1.10;;
76035;SDS011;64732;56.314;44.068;2023-04-24T11:49:07;6.03;;;1.40;;
76035;SDS011;64732;56.314;44.068;2023-04-24T11:51:28;3.80;;;1.58;;
76035;SDS011;64732;56.314;44.068;2023-04-24T11:53:50;4.32;;;1.42;;
76035;SDS011;64732;56.314;44.068;2023-04-24T11:56:16;3.83;;;1.30;;
76035;SDS011;64732;56.314;44.068;2023-04-24T11:58:40;7.47;;;1.45;;
76035;SDS011;64732;56.314;44.068;2023-04-24T12:01:01;6.70;;;2.20;;
76035;SDS011;64732;56.314;44.068;2023-04-24T12:03:22;8.25;;;2.08;;
76035;SDS011;64732;56.314;44.068;2023-04-24T12:05:43;5.45;;;1.50;;
76035;SDS011;64732;56.314;44.068;2023-04-24T12:08:05;4.53;;;1.75;;
76035;SDS011;64732;56.314;44.068;2023-04-24T12:10:27;4.43;;;1.58;;
76035;SDS011;64732;56.314;44.068;2023-04-24T12:12:52;4.43;;;1.55;;
76035;SDS011;64732;56.314;44.068;2023-04-24T12:15:15;4.47;;;1.20;;
76035;SDS011;64732;56.314;44.068;2023-04-24T12:17:36;4.82;;;1.33;;
76035;SDS011;64732;56.314;44.068;2023-04-24T12:20:02;3.78;;;1.20;;
76035;SDS011;64732;56.314;44.068;2023-04-24T12:22:28;3.55;;;1.35;;
76035;SDS011;64732;56.314;44.068;2023-04-24T12:24:55;4.78;;;1.77;;
76035;SDS011;64732;56.314;44.068;2023-04-24T12:27:19;4.95;;;1.60;;
76035;SDS011;64732;56.314;44.068;2023-04-24T12:29:53;3.95;;;1.38;;
76035;SDS011;64732;56.314;44.068;2023-04-24T12:32:15;3.97;;;1.27;;
76035;SDS011;64732;56.314;44.068;2023-04-24T12:34:36;3.25;;;1.05;;
76035;SDS011;64732;56.314;44.068;2023-04-24T12:37:09;4.03;;;1.63;;
76035;SDS011;64732;56.314;44.068;2023-04-24T12:39:30;3.95;;;1.60;;
76035;SDS011;64732;56.314;44.068;2023-04-24T12:41:56;5.50;;;1.48;;
76035;SDS011;64732;56.314;44.068;2023-04-24T12:44:17;4.05;;;1.55;;
76035;SDS011;64732;56.314;44.068;2023-04-24T12:46:41;5.05;;;1.80;;
76035;SDS011;64732;56.314;44.068;2023-04-24T12:49:05;4.57;;;1.48;;
76035;SDS011;64732;56.314;44.068;2023-04-24T12:51:26;4.75;;;1.45;;
76035;SDS011;64732;56.314;44.068;2023-04-24T12:53:47;4.53;;;1.70;;
76035;SDS011;64732;56.314;44.068;2023-04-24T12:56:08;2.70;;;1.35;;
76035;SDS011;64732;56.314;44.068;2023-04-24T12:58:30;3.47;;;1.42;;
76035;SDS011;64732;56.314;44.068;2023-04-24T13:00:51;9.32;;;2.00;;
76035;SDS011;64732;56.314;44.068;2023-04-24T13:03:15;4.97;;;1.58;;
76035;SDS011;64732;56.314;44.068;2023-04-24T13:05:36;4.60;;;1.40;;
76035;SDS011;64732;56.314;44.068;2023-04-24T13:07:57;5.75;;;1.50;;
76035;SDS011;64732;56.314;44.068;2023-04-24T13:10:18;2.92;;;1.35;;
76035;SDS011;64732;56.314;44.068;2023-04-24T13:12:39;3.50;;;1.52;;
76035;SDS011;64732;56.314;44.068;2023-04-24T13:15:01;4.20;;;1.30;;
76035;SDS011;64732;56.314;44.068;2023-04-24T13:17:24;6.60;;;1.55;;
76035;SDS011;64732;56.314;44.068;2023-04-24T13:19:48;4.38;;;1.50;;
76035;SDS011;64732;56.314;44.068;2023-04-24T13:22:10;3.22;;;1.65;;
76035;SDS011;64732;56.314;44.068;2023-04-24T13:24:32;5.65;;;1.98;;
76035;SDS011;64732;56.314;44.068;2023-04-24T13:26:53;5.43;;;1.80;;
76035;SDS011;64732;56.314;44.068;2023-04-24T13:29:14;4.97;;;1.50;;
76035;SDS011;64732;56.314;44.068;2023-04-24T13:31:37;4.50;;;1.77;;
76035;SDS011;64732;56.314;44.068;2023-04-24T13:33:58;6.18;;;1.60;;
76035;SDS011;64732;56.314;44.068;2023-04-24T13:36:21;7.97;;;1.70;;
76035;SDS011;64732;56.314;44.068;2023-04-24T13:38:42;5.28;;;1.50;;
76035;SDS011;64732;56.314;44.068;2023-04-24T13:41:04;7.28;;;1.55;;
76035;SDS011;64732;56.314;44.068;2023-04-24T13:43:25;4.88;;;1.48;;
76035;SDS011;64732;56.314;44.068;2023-04-24T13:45:48;5.60;;;1.30;;
76035;SDS011;64732;56.314;44.068;2023-04-24T13:48:09;6.57;;;1.50;;
76035;SDS011;64732;56.314;44.068;2023-04-24T13:50:30;4.53;;;1.98;;
76035;SDS011;64732;56.314;44.068;2023-04-24T13:52:54;7.05;;;1.90;;
76035;SDS011;64732;56.314;44.068;2023-04-24T13:55:15;8.85;;;1.70;;
76035;SDS011;64732;56.314;44.068;2023-04-24T13:57:36;4.95;;;1.20;;
76035;SDS011;64732;56.314;44.068;2023-04-24T13:59:57;5.15;;;1.25;;
76035;SDS011;64732;56.314;44.068;2023-04-24T14:02:18;4.55;;;1.42;;
76035;SDS011;64732;56.314;44.068;2023-04-24T14:04:40;5.38;;;1.20;;
76035;SDS011;64732;56.314;44.068;2023-04-24T14:07:01;3.33;;;1.02;;
76035;SDS011;64732;56.314;44.068;2023-04-24T14:11:50;7.10;;;1.65;;
76035;SDS011;64732;56.314;44.068;2023-04-24T14:14:12;6.00;;;1.25;;
76035;SDS011;64732;56.314;44.068;2023-04-24T14:16:33;5.40;;;1.33;;